sensor_id;sensor_type;location;lat;lon;timestamp;pressure;altitude;pressure_sealevel;temperature;humidity
11444;BME280;5778;47.856;12.154;2023-02-12T00:00:46;98170.34;;;1.59;100.00
11444;BME280;5778;47.856;12.154;2023-02-12T00:03:13;98162.28;;;1.53;100.00
11444;BME280;5778;47.856;12.154;2023-02-12T00:05:41;98172.59;;;1.54;100.00
11444;BME280;5778;47.856;12.154;2023-02-12T00:08:09;98166.06;;;1.58;100.00
11444;BME280;5778;47.856;12.154;2023-02-12T00:10:43;98171.53;;;1.65;100.00
11444;BME280;5778;47.856;12.154;2023-02-12T00:13:11;98161.50;;;1.60;100.00
11444;BME280;5778;47.856;12.154;2023-02-12T00:15:40;98175.56;;;1.59;100.00
11444;BME280;5778;47.856;12.154;2023-02-12T00:18:08;98174.44;;;1.62;100.00
11444;BME280;5778;47.856;12.154;2023-02-12T00:20:38;98166.44;;;1.63;100.00
11444;BME280;5778;47.856;12.154;2023-02-12T00:23:06;98156.56;;;1.57;100.00
11444;BME280;5778;47.856;12.154;2023-02-12T00:25:33;98159.41;;;1.46;100.00
11444;BME280;5778;47.856;12.154;2023-02-12T00:28:03;98158.28;;;1.49;100.00
11444;BME280;5778;47.856;12.154;2023-02-12T00:30:30;98161.16;;;1.55;100.00
11444;BME280;5778;47.856;12.154;2023-02-12T00:32:58;98166.97;;;1.67;100.00
11444;BME280;5778;47.856;12.154;2023-02-12T00:35:28;98170.59;;;1.74;100.00
11444;BME280;5778;47.856;12.154;2023-02-12T00:37:55;98178.19;;;1.77;100.00
11444;BME280;5778;47.856;12.154;2023-02-12T00:40:22;98173.22;;;1.74;100.00
11444;BME280;5778;47.856;12.154;2023-02-12T00:42:50;98177.06;;;1.79;100.00
11444;BME280;5778;47.856;12.154;2023-02-12T00:45:19;98175.41;;;1.78;100.00
11444;BME280;5778;47.856;12.154;2023-02-12T00:47:47;98175.09;;;1.81;100.00
11444;BME280;5778;47.856;12.154;2023-02-12T00:50:15;98178.22;;;1.85;100.00
11444;BME280;5778;47.856;12.154;2023-02-12T00:52:43;98178.31;;;1.93;100.00
11444;BME280;5778;47.856;12.154;2023-02-12T00:55:10;98173.34;;;1.90;100.00
11444;BME280;5778;47.856;12.154;2023-02-12T00:57:37;98173.97;;;1.84;100.00
11444;BME280;5778;47.856;12.154;2023-02-12T01:00:06;98179.22;;;1.84;100.00
11444;BME280;5778;47.856;12.154;2023-02-12T01:02:35;98179.94;;;1.94;100.00
11444;BME280;5778;47.856;12.154;2023-02-12T01:05:05;98177.47;;;1.92;100.00
11444;BME280;5778;47.856;12.154;2023-02-12T01:07:32;98179.16;;;1.93;100.00
11444;BME280;5778;47.856;12.154;2023-02-12T01:10:02;98181.22;;;1.90;100.00
11444;BME280;5778;47.856;12.154;2023-02-12T01:12:29;98173.34;;;1.90;100.00
11444;BME280;5778;47.856;12.154;2023-02-12T01:14:57;98172.22;;;1.92;100.00
11444;BME280;5778;47.856;12.154;2023-02-12T01:17:24;98173.06;;;1.93;100.00
11444;BME280;5778;47.856;12.154;2023-02-12T01:19:57;98184.06;;;1.96;100.00
11444;BME280;5778;47.856;12.154;2023-02-12T01:22:25;98189.31;;;1.96;100.00
11444;BME280;5778;47.856;12.154;2023-02-12T01:24:52;98185.09;;;2.03;100.00
11444;BME280;5778;47.856;12.154;2023-02-12T01:27:19;98190.72;;;2.08;100.00
11444;BME280;5778;47.856;12.154;2023-02-12T01:29:48;98173.84;;;2.11;100.00
11444;BME280;5778;47.856;12.154;2023-02-12T01:32:15;98177.69;;;1.99;100.00
11444;BME280;5778;47.856;12.154;2023-02-12T01:34:42;98172.16;;;2.02;100.00
11444;BME280;5778;47.856;12.154;2023-02-12T01:37:12;98176.66;;;1.92;100.00
11444;BME280;5778;47.856;12.154;2023-02-12T01:39:39;98168.84;;;2.00;100.00
11444;BME280;5778;47.856;12.154;2023-02-12T01:42:09;98173.03;;;2.10;100.00
11444;BME280;5778;47.856;12.154;2023-02-12T01:44:42;98174.66;;;2.11;100.00
11444;BME280;5778;47.856;12.154;2023-02-12T01:47:15;98179.78;;;2.13;100.00
11444;BME280;5778;47.856;12.154;2023-02-12T01:49:45;98170.22;;;2.12;100.00
11444;BME280;5778;47.856;12.154;2023-02-12T01:52:19;98156.19;;;1.95;100.00
11444;BME280;5778;47.856;12.154;2023-02-12T01:54:49;98148.47;;;1.94;100.00
11444;BME280;5778;47.856;12.154;2023-02-12T01:57:17;98149.75;;;1.90;100.00
11444;BME280;5778;47.856;12.154;2023-02-12T01:59:48;98143.38;;;1.92;100.00
11444;BME280;5778;47.856;12.154;2023-02-12T02:02:20;98146.31;;;1.89;100.00
11444;BME280;5778;47.856;12.154;2023-02-12T02:04:49;98147.97;;;1.90;100.00
11444;BME280;5778;47.856;12.154;2023-02-12T02:07:19;98149.75;;;1.90;100.00
11444;BME280;5778;47.856;12.154;2023-02-12T02:09:46;98151.47;;;1.99;100.00
11444;BME280;5778;47.856;12.154;2023-02-12T02:12:14;98151.16;;;2.02;100.00
11444;BME280;5778;47.856;12.154;2023-02-12T02:15:11;98149.84;;;2.06;100.00
11444;BME280;5778;47.856;12.154;2023-02-12T02:17:48;98158.41;;;2.08;100.00
11444;BME280;5778;47.856;12.154;2023-02-12T02:20:35;98164.16;;;2.11;100.00
11444;BME280;5778;47.856;12.154;2023-02-12T02:32:41;98171.44;;;2.17;100.00
11444;BME280;5778;47.856;12.154;2023-02-12T02:35:13;98169.28;;;2.13;100.00
11444;BME280;5778;47.856;12.154;2023-02-12T02:37:46;98163.41;;;2.19;100.00
11444;BME280;5778;47.856;12.154;2023-02-12T02:40:18;98172.03;;;2.11;100.00
11444;BME280;5778;47.856;12.154;2023-02-12T02:42:52;98164.66;;;2.07;100.00
11444;BME280;5778;47.856;12.154;2023-02-12T02:45:23;98174.19;;;2.16;100.00
11444;BME280;5778;47.856;12.154;2023-02-12T02:47:59;98168.66;;;2.19;100.00
11444;BME280;5778;47.856;12.154;2023-02-12T02:50:30;98173.06;;;2.18;100.00
11444;BME280;5778;47.856;12.154;2023-02-12T02:53:05;98180.78;;;2.20;100.00
11444;BME280;5778;47.856;12.154;2023-02-12T02:55:39;98185.19;;;2.19;100.00
11444;BME280;5778;47.856;12.154;2023-02-12T02:58:12;98180.78;;;2.20;100.00
11444;BME280;5778;47.856;12.154;2023-02-12T03:00:43;98181.81;;;2.27;100.00
11444;BME280;5778;47.856;12.154;2023-02-12T03:03:19;98177.41;;;2.27;100.00
11444;BME280;5778;47.856;12.154;2023-02-12T03:05:51;98173.72;;;2.20;100.00
11444;BME280;5778;47.856;12.154;2023-02-12T03:08:23;98171.00;;;2.30;100.00
11444;BME280;5778;47.856;12.154;2023-02-12T03:10:56;98165.28;;;2.34;100.00
11444;BME280;5778;47.856;12.154;2023-02-12T03:13:31;98156.03;;;2.22;100.00
11444;BME280;5778;47.856;12.154;2023-02-12T03:16:03;98158.81;;;2.21;100.00
11444;BME280;5778;47.856;12.154;2023-02-12T03:18:40;98156.66;;;2.16;100.00
11444;BME280;5778;47.856;12.154;2023-02-12T03:21:11;98153.94;;;2.00;100.00
11444;BME280;5778;47.856;12.154;2023-02-12T03:23:45;98149.44;;;1.93;100.00
11444;BME280;5778;47.856;12.154;2023-02-12T03:26:16;98153.06;;;1.92;100.00
11444;BME280;5778;47.856;12.154;2023-02-12T03:28:45;98168.44;;;1.87;100.00
11444;BME280;5778;47.856;12.154;2023-02-12T03:31:19;98172.09;;;1.94;100.00
11444;BME280;5778;47.856;12.154;2023-02-12T03:34:03;98168.19;;;1.98;100.00
11444;BME280;5778;47.856;12.154;2023-02-12T03:36:36;98183.66;;;2.09;100.00
11444;BME280;5778;47.856;12.154;2023-02-12T03:39:08;98193.84;;;2.12;100.00
11444;BME280;5778;47.856;12.154;2023-02-12T03:41:41;98201.28;;;2.16;100.00
11444;BME280;5778;47.856;12.154;2023-02-12T03:44:17;98204.41;;;2.20;100.00
11444;BME280;5778;47.856;12.154;2023-02-12T03:46:50;98192.28;;;2.19;100.00
11444;BME280;5778;47.856;12.154;2023-02-12T03:49:26;98187.06;;;2.27;100.00
11444;BME280;5778;47.856;12.154;2023-02-12T03:51:56;98195.63;;;2.29;100.00
11444;BME280;5778;47.856;12.154;2023-02-12T03:54:25;98191.19;;;2.29;100.00
11444;BME280;5778;47.856;12.154;2023-02-12T03:56:56;98186.25;;;2.26;100.00
11444;BME280;5778;47.856;12.154;2023-02-12T03:59:28;98186.34;;;2.17;100.00
11444;BME280;5778;47.856;12.154;2023-02-12T04:01:58;98192.88;;;2.13;100.00
11444;BME280;5778;47.856;12.154;2023-02-12T04:04:27;98184.75;;;2.24;100.00
11444;BME280;5778;47.856;12.154;2023-02-12T04:06:55;98178.69;;;2.23;100.00
11444;BME280;5778;47.856;12.154;2023-02-12T04:09:25;98172.56;;;2.15;100.00
11444;BME280;5778;47.856;12.154;2023-02-12T04:12:05;98174.19;;;2.16;100.00
11444;BME280;5778;47.856;12.154;2023-02-12T04:14:42;98184.91;;;2.22;100.00
11444;BME280;5778;47.856;12.154;2023-02-12T04:17:31;98185.78;;;2.31;100.00
11444;BME280;5778;47.856;12.154;2023-02-12T04:20:10;98181.44;;;2.22;100.00
11444;BME280;5778;47.856;12.154;2023-02-12T04:22:45;98180.56;;;2.13;100.00
11444;BME280;5778;47.856;12.154;2023-02-12T04:25:24;98188.03;;;2.26;100.00
11444;BME280;5778;47.856;12.154;2023-02-12T04:27:59;98185.63;;;2.32;100.00
11444;BME280;5778;47.856;12.154;2023-02-12T04:30:32;98188.25;;;2.32;100.00
11444;BME280;5778;47.856;12.154;2023-02-12T04:33:03;98188.69;;;2.28;100.00
11444;BME280;5778;47.856;12.154;2023-02-12T04:35:35;98192.53;;;2.33;100.00
11444;BME280;5778;47.856;12.154;2023-02-12T04:38:10;98197.91;;;2.32;100.00
11444;BME280;5778;47.856;12.154;2023-02-12T04:40:39;98191.69;;;2.33;100.00
11444;BME280;5778;47.856;12.154;2023-02-12T04:43:08;98193.66;;;2.31;100.00
11444;BME280;5778;47.856;12.154;2023-02-12T04:45:37;98201.81;;;2.28;100.00
11444;BME280;5778;47.856;12.154;2023-02-12T04:48:04;98204.44;;;2.28;100.00
11444;BME280;5778;47.856;12.154;2023-02-12T04:50:38;98206.13;;;2.29;100.00
11444;BME280;5778;47.856;12.154;2023-02-12T04:53:08;98202.50;;;2.30;100.00
11444;BME280;5778;47.856;12.154;2023-02-12T04:55:36;98203.31;;;2.30;100.00
11444;BME280;5778;47.856;12.154;2023-02-12T04:58:03;98198.06;;;2.30;100.00
11444;BME280;5778;47.856;12.154;2023-02-12T05:00:31;98214.66;;;2.31;100.00
11444;BME280;5778;47.856;12.154;2023-02-12T05:02:59;98212.06;;;2.39;100.00
11444;BME280;5778;47.856;12.154;2023-02-12T05:05:26;98215.81;;;2.36;100.00
11444;BME280;5778;47.856;12.154;2023-02-12T05:07:55;98221.63;;;2.40;100.00
11444;BME280;5778;47.856;12.154;2023-02-12T05:10:24;98220.78;;;2.39;100.00
11444;BME280;5778;47.856;12.154;2023-02-12T05:12:52;98224.91;;;2.42;100.00
11444;BME280;5778;47.856;12.154;2023-02-12T05:15:20;98225.56;;;2.44;100.00
11444;BME280;5778;47.856;12.154;2023-02-12T05:17:48;98224.06;;;2.41;100.00
11444;BME280;5778;47.856;12.154;2023-02-12T05:20:15;98220.31;;;2.44;100.00
11444;BME280;5778;47.856;12.154;2023-02-12T05:22:43;98226.38;;;2.44;100.00
11444;BME280;5778;47.856;12.154;2023-02-12T05:25:12;98227.19;;;2.45;100.00
11444;BME280;5778;47.856;12.154;2023-02-12T05:27:39;98226.91;;;2.48;100.00
11444;BME280;5778;47.856;12.154;2023-02-12T05:30:08;98233.16;;;2.55;100.00
11444;BME280;5778;47.856;12.154;2023-02-12T05:32:35;98230.00;;;2.43;100.00
11444;BME280;5778;47.856;12.154;2023-02-12T05:35:04;98230.78;;;2.36;100.00
11444;BME280;5778;47.856;12.154;2023-02-12T05:37:33;98228.28;;;2.34;100.00
11444;BME280;5778;47.856;12.154;2023-02-12T05:40:02;98231.75;;;2.35;100.00
11444;BME280;5778;47.856;12.154;2023-02-12T05:42:32;98238.94;;;2.33;100.00
11444;BME280;5778;47.856;12.154;2023-02-12T05:44:59;98238.16;;;2.40;100.00
11444;BME280;5778;47.856;12.154;2023-02-12T05:47:26;98233.91;;;2.39;100.00
11444;BME280;5778;47.856;12.154;2023-02-12T05:49:54;98237.66;;;2.37;100.00
11444;BME280;5778;47.856;12.154;2023-02-12T05:52:22;98234.19;;;2.36;100.00
11444;BME280;5778;47.856;12.154;2023-02-12T05:54:50;98247.94;;;2.30;100.00
11444;BME280;5778;47.856;12.154;2023-02-12T05:57:18;98239.25;;;2.30;100.00
11444;BME280;5778;47.856;12.154;2023-02-12T05:59:47;98243.81;;;2.28;100.00
11444;BME280;5778;47.856;12.154;2023-02-12T06:02:15;98243.81;;;2.28;100.00
11444;BME280;5778;47.856;12.154;2023-02-12T06:04:42;98244.50;;;2.30;100.00
11444;BME280;5778;47.856;12.154;2023-02-12T06:07:10;98253.03;;;2.32;100.00
11444;BME280;5778;47.856;12.154;2023-02-12T06:09:37;98244.19;;;2.33;100.00
11444;BME280;5778;47.856;12.154;2023-02-12T06:12:05;98244.88;;;2.35;100.00
11444;BME280;5778;47.856;12.154;2023-02-12T06:14:32;98243.06;;;2.35;100.00
11444;BME280;5778;47.856;12.154;2023-02-12T06:17:01;98243.06;;;2.35;100.00
11444;BME280;5778;47.856;12.154;2023-02-12T06:19:28;98236.16;;;2.34;100.00
11444;BME280;5778;47.856;12.154;2023-02-12T06:21:55;98238.56;;;2.28;100.00
11444;BME280;5778;47.856;12.154;2023-02-12T06:24:22;98252.47;;;2.20;100.00
11444;BME280;5778;47.856;12.154;2023-02-12T06:26:50;98252.31;;;2.22;100.00
11444;BME280;5778;47.856;12.154;2023-02-12T06:29:20;98248.69;;;2.23;100.00
11444;BME280;5778;47.856;12.154;2023-02-12T06:31:48;98247.44;;;2.27;100.00
11444;BME280;5778;47.856;12.154;2023-02-12T06:34:17;98253.38;;;2.29;100.00
11444;BME280;5778;47.856;12.154;2023-02-12T06:36:46;98256.88;;;2.37;100.00
11444;BME280;5778;47.856;12.154;2023-02-12T06:39:14;98261.66;;;2.42;100.00
11444;BME280;5778;47.856;12.154;2023-02-12T06:41:42;98254.28;;;2.45;100.00
11444;BME280;5778;47.856;12.154;2023-02-12T06:44:12;98256.00;;;2.54;100.00
11444;BME280;5778;47.856;12.154;2023-02-12T06:46:41;98251.19;;;2.50;100.00
11444;BME280;5778;47.856;12.154;2023-02-12T06:49:11;98253.81;;;2.50;100.00
11444;BME280;5778;47.856;12.154;2023-02-12T06:51:40;98248.28;;;2.61;100.00
11444;BME280;5778;47.856;12.154;2023-02-12T06:54:13;98249.63;;;2.65;100.00
11444;BME280;5778;47.856;12.154;2023-02-12T06:56:40;98252.78;;;2.68;100.00
11444;BME280;5778;47.856;12.154;2023-02-12T06:59:12;98257.22;;;2.68;100.00
11444;BME280;5778;47.856;12.154;2023-02-12T07:01:40;98259.66;;;2.69;100.00
11444;BME280;5778;47.856;12.154;2023-02-12T07:04:07;98260.03;;;2.74;100.00
11444;BME280;5778;47.856;12.154;2023-02-12T07:06:35;98267.13;;;2.82;100.00
11444;BME280;5778;47.856;12.154;2023-02-12T07:09:04;98265.19;;;2.84;100.00
11444;BME280;5778;47.856;12.154;2023-02-12T07:11:33;98264.34;;;2.83;100.00
11444;BME280;5778;47.856;12.154;2023-02-12T07:14:01;98260.94;;;2.91;100.00
11444;BME280;5778;47.856;12.154;2023-02-12T07:16:28;98260.13;;;2.90;100.00
11444;BME280;5778;47.856;12.154;2023-02-12T07:18:55;98267.09;;;3.07;100.00
11444;BME280;5778;47.856;12.154;2023-02-12T07:21:23;98263.38;;;3.18;100.00
11444;BME280;5778;47.856;12.154;2023-02-12T07:23:51;98265.66;;;3.21;100.00
11444;BME280;5778;47.856;12.154;2023-02-12T07:26:20;98266.00;;;3.26;100.00
11444;BME280;5778;47.856;12.154;2023-02-12T07:28:48;98264.06;;;3.28;100.00
11444;BME280;5778;47.856;12.154;2023-02-12T07:31:18;98265.34;;;3.16;100.00
11444;BME280;5778;47.856;12.154;2023-02-12T07:33:47;98272.03;;;3.10;100.00
11444;BME280;5778;47.856;12.154;2023-02-12T07:36:16;98278.22;;;3.01;100.00
11444;BME280;5778;47.856;12.154;2023-02-12T07:38:44;98285.16;;;3.02;100.00
11444;BME280;5778;47.856;12.154;2023-02-12T07:41:13;98276.81;;;3.15;100.00
11444;BME280;5778;47.856;12.154;2023-02-12T07:43:45;98286.38;;;3.16;100.00
11444;BME280;5778;47.856;12.154;2023-02-12T07:46:14;98280.44;;;3.14;100.00
11444;BME280;5778;47.856;12.154;2023-02-12T07:48:42;98288.94;;;3.08;100.00
11444;BME280;5778;47.856;12.154;2023-02-12T07:51:11;98282.25;;;3.13;100.00
11444;BME280;5778;47.856;12.154;2023-02-12T07:53:39;98273.88;;;3.18;100.00
11444;BME280;5778;47.856;12.154;2023-02-12T07:56:09;98263.22;;;3.27;100.00
11444;BME280;5778;47.856;12.154;2023-02-12T07:58:38;98263.22;;;3.27;100.00
11444;BME280;5778;47.856;12.154;2023-02-12T08:01:15;98261.78;;;3.33;100.00
11444;BME280;5778;47.856;12.154;2023-02-12T08:03:44;98260.31;;;3.38;100.00
11444;BME280;5778;47.856;12.154;2023-02-12T08:06:13;98252.59;;;3.53;100.00
11444;BME280;5778;47.856;12.154;2023-02-12T08:08:43;98254.25;;;3.54;100.00
11444;BME280;5778;47.856;12.154;2023-02-12T08:11:12;98253.59;;;3.52;100.00
11444;BME280;5778;47.856;12.154;2023-02-12T08:13:40;98255.59;;;3.58;100.00
11444;BME280;5778;47.856;12.154;2023-02-12T08:16:10;98261.03;;;3.72;100.00
11444;BME280;5778;47.856;12.154;2023-02-12T08:18:39;98247.06;;;3.72;100.00
11444;BME280;5778;47.856;12.154;2023-02-12T08:21:08;98251.34;;;3.65;100.00
11444;BME280;5778;47.856;12.154;2023-02-12T08:23:36;98249.03;;;3.70;100.00
11444;BME280;5778;47.856;12.154;2023-02-12T08:26:08;98254.66;;;3.83;100.00
11444;BME280;5778;47.856;12.154;2023-02-12T08:28:37;98259.59;;;4.02;100.00
11444;BME280;5778;47.856;12.154;2023-02-12T08:31:07;98254.50;;;4.08;100.00
11444;BME280;5778;47.856;12.154;2023-02-12T08:36:05;98254.44;;;4.48;100.00
11444;BME280;5778;47.856;12.154;2023-02-12T08:38:35;98251.50;;;4.51;100.00
11444;BME280;5778;47.856;12.154;2023-02-12T08:41:04;98246.34;;;4.74;100.00
11444;BME280;5778;47.856;12.154;2023-02-12T08:43:33;98255.19;;;4.89;100.00
11444;BME280;5778;47.856;12.154;2023-02-12T08:46:02;98244.22;;;5.16;100.00
11444;BME280;5778;47.856;12.154;2023-02-12T08:48:30;98239.22;;;5.29;100.00
11444;BME280;5778;47.856;12.154;2023-02-12T08:51:05;98240.38;;;5.57;100.00
11444;BME280;5778;47.856;12.154;2023-02-12T08:53:33;98245.66;;;5.57;100.00
11444;BME280;5778;47.856;12.154;2023-02-12T08:56:00;98247.00;;;5.53;100.00
11444;BME280;5778;47.856;12.154;2023-02-12T08:58:28;98245.97;;;5.62;100.00
11444;BME280;5778;47.856;12.154;2023-02-12T09:00:56;98242.78;;;5.97;100.00
11444;BME280;5778;47.856;12.154;2023-02-12T09:05:51;98239.59;;;6.24;100.00
11444;BME280;5778;47.856;12.154;2023-02-12T09:10:50;98239.59;;;6.61;100.00
11444;BME280;5778;47.856;12.154;2023-02-12T09:13:17;98241.50;;;6.67;100.00
11444;BME280;5778;47.856;12.154;2023-02-12T09:15:44;98246.09;;;6.36;100.00
11444;BME280;5778;47.856;12.154;2023-02-12T09:18:13;98241.22;;;6.62;100.00
11444;BME280;5778;47.856;12.154;2023-02-12T09:20:42;98244.44;;;6.72;100.00
11444;BME280;5778;47.856;12.154;2023-02-12T09:23:12;98237.38;;;7.08;100.00
11444;BME280;5778;47.856;12.154;2023-02-12T09:25:43;98240.84;;;7.23;100.00
11444;BME280;5778;47.856;12.154;2023-02-12T09:28:12;98251.00;;;6.76;100.00
11444;BME280;5778;47.856;12.154;2023-02-12T09:30:40;98252.72;;;7.27;100.00
11444;BME280;5778;47.856;12.154;2023-02-12T09:33:09;98246.59;;;7.12;100.00
11444;BME280;5778;47.856;12.154;2023-02-12T09:35:38;98253.53;;;7.42;100.00
11444;BME280;5778;47.856;12.154;2023-02-12T09:38:07;98254.06;;;7.73;100.00
11444;BME280;5778;47.856;12.154;2023-02-12T09:40:42;98259.84;;;7.62;100.00
11444;BME280;5778;47.856;12.154;2023-02-12T09:43:16;98250.59;;;8.08;100.00
11444;BME280;5778;47.856;12.154;2023-02-12T09:45:50;98251.16;;;8.24;100.00
11444;BME280;5778;47.856;12.154;2023-02-12T09:48:48;98244.66;;;8.27;100.00
11444;BME280;5778;47.856;12.154;2023-02-12T09:51:17;98246.03;;;8.44;100.00
11444;BME280;5778;47.856;12.154;2023-02-12T09:53:48;98255.09;;;8.77;100.00
11444;BME280;5778;47.856;12.154;2023-02-12T09:56:20;98246.28;;;7.86;100.00
11444;BME280;5778;47.856;12.154;2023-02-12T09:58:51;98255.28;;;7.91;100.00
11444;BME280;5778;47.856;12.154;2023-02-12T10:01:20;98258.28;;;8.03;100.00
11444;BME280;5778;47.856;12.154;2023-02-12T10:03:51;98261.41;;;8.55;100.00
11444;BME280;5778;47.856;12.154;2023-02-12T10:06:20;98254.00;;;8.71;100.00
11444;BME280;5778;47.856;12.154;2023-02-12T10:09:01;98264.03;;;8.76;100.00
11444;BME280;5778;47.856;12.154;2023-02-12T10:11:48;98258.47;;;8.01;100.00
11444;BME280;5778;47.856;12.154;2023-02-12T10:14:29;98265.25;;;8.25;100.00
11444;BME280;5778;47.856;12.154;2023-02-12T10:17:07;98267.34;;;8.15;100.00
11444;BME280;5778;47.856;12.154;2023-02-12T10:20:03;98274.69;;;8.13;100.00
11444;BME280;5778;47.856;12.154;2023-02-12T10:22:41;98268.16;;;8.57;100.00
11444;BME280;5778;47.856;12.154;2023-02-12T10:25:21;98272.78;;;8.49;100.00
11444;BME280;5778;47.856;12.154;2023-02-12T10:27:53;98264.47;;;8.52;100.00
11444;BME280;5778;47.856;12.154;2023-02-12T10:30:24;98262.13;;;8.00;100.00
11444;BME280;5778;47.856;12.154;2023-02-12T10:32:58;98257.34;;;8.52;100.00
11444;BME280;5778;47.856;12.154;2023-02-12T10:35:27;98252.84;;;8.53;100.00
11444;BME280;5778;47.856;12.154;2023-02-12T10:37:57;98258.63;;;8.63;100.00
11444;BME280;5778;47.856;12.154;2023-02-12T10:40:28;98261.00;;;9.13;100.00
11444;BME280;5778;47.856;12.154;2023-02-12T10:43:00;98249.56;;;9.53;100.00
11444;BME280;5778;47.856;12.154;2023-02-12T10:45:30;98248.38;;;9.62;100.00
11444;BME280;5778;47.856;12.154;2023-02-12T10:48:07;98237.38;;;9.78;100.00
11444;BME280;5778;47.856;12.154;2023-02-12T10:50:45;98238.50;;;9.49;100.00
11444;BME280;5778;47.856;12.154;2023-02-12T10:53:19;98232.22;;;9.57;100.00
11444;BME280;5778;47.856;12.154;2023-02-12T10:55:46;98235.19;;;10.01;100.00
11444;BME280;5778;47.856;12.154;2023-02-12T10:58:21;98229.63;;;9.83;100.00
11444;BME280;5778;47.856;12.154;2023-02-12T11:00:56;98226.88;;;10.36;100.00
11444;BME280;5778;47.856;12.154;2023-02-12T11:03:28;98236.09;;;10.40;100.00
11444;BME280;5778;47.856;12.154;2023-02-12T11:06:10;98231.78;;;10.72;100.00
11444;BME280;5778;47.856;12.154;2023-02-12T11:08:38;98225.84;;;10.63;100.00
11444;BME280;5778;47.856;12.154;2023-02-12T11:11:09;98235.47;;;10.58;100.00
11444;BME280;5778;47.856;12.154;2023-02-12T11:13:43;98221.28;;;11.03;100.00
11444;BME280;5778;47.856;12.154;2023-02-12T11:16:11;98212.91;;;10.93;100.00
11444;BME280;5778;47.856;12.154;2023-02-12T11:18:39;98219.09;;;10.61;100.00
11444;BME280;5778;47.856;12.154;2023-02-12T11:21:10;98225.63;;;10.78;100.00
11444;BME280;5778;47.856;12.154;2023-02-12T11:23:43;98216.03;;;10.44;100.00
11444;BME280;5778;47.856;12.154;2023-02-12T11:26:23;98228.50;;;10.76;100.00
11444;BME280;5778;47.856;12.154;2023-02-12T11:28:55;98215.72;;;11.11;100.00
11444;BME280;5778;47.856;12.154;2023-02-12T11:31:24;98220.69;;;11.01;100.00
11444;BME280;5778;47.856;12.154;2023-02-12T11:34:07;98211.16;;;11.31;100.00
11444;BME280;5778;47.856;12.154;2023-02-12T11:36:36;98211.78;;;11.26;100.00
11444;BME280;5778;47.856;12.154;2023-02-12T11:39:17;98212.00;;;11.25;100.00
11444;BME280;5778;47.856;12.154;2023-02-12T11:41:50;98205.63;;;11.26;100.00
11444;BME280;5778;47.856;12.154;2023-02-12T11:44:24;98200.03;;;11.40;100.00
11444;BME280;5778;47.856;12.154;2023-02-12T11:46:55;98191.38;;;11.58;100.00
11444;BME280;5778;47.856;12.154;2023-02-12T11:49:26;98196.00;;;11.82;100.00
11444;BME280;5778;47.856;12.154;2023-02-12T11:51:55;98188.88;;;12.00;100.00
11444;BME280;5778;47.856;12.154;2023-02-12T11:54:26;98186.44;;;11.61;100.00
11444;BME280;5778;47.856;12.154;2023-02-12T11:56:54;98182.75;;;11.62;100.00
11444;BME280;5778;47.856;12.154;2023-02-12T11:59:41;98186.72;;;10.83;100.00
11444;BME280;5778;47.856;12.154;2023-02-12T12:02:17;98184.59;;;11.18;100.00
11444;BME280;5778;47.856;12.154;2023-02-12T12:04:53;98174.13;;;11.23;100.00
11444;BME280;5778;47.856;12.154;2023-02-12T12:07:25;98178.41;;;11.30;100.00
11444;BME280;5778;47.856;12.154;2023-02-12T12:09:57;98175.50;;;11.32;100.00
11444;BME280;5778;47.856;12.154;2023-02-12T12:12:31;98175.31;;;11.71;100.00
11444;BME280;5778;47.856;12.154;2023-02-12T12:15:06;98172.34;;;10.97;100.00
11444;BME280;5778;47.856;12.154;2023-02-12T12:18:03;98174.50;;;10.50;100.00
11444;BME280;5778;47.856;12.154;2023-02-12T12:20:53;98180.03;;;11.25;100.00
11444;BME280;5778;47.856;12.154;2023-02-12T12:23:29;98175.94;;;11.22;100.00
11444;BME280;5778;47.856;12.154;2023-02-12T12:26:05;98170.75;;;10.83;100.00
11444;BME280;5778;47.856;12.154;2023-02-12T12:28:39;98172.75;;;11.01;100.00
11444;BME280;5778;47.856;12.154;2023-02-12T12:31:11;98165.75;;;11.13;100.00
11444;BME280;5778;47.856;12.154;2023-02-12T12:33:43;98164.78;;;10.88;100.00
11444;BME280;5778;47.856;12.154;2023-02-12T12:36:39;98167.84;;;10.98;100.00
11444;BME280;5778;47.856;12.154;2023-02-12T12:39:16;98163.34;;;10.92;100.00
11444;BME280;5778;47.856;12.154;2023-02-12T12:42:01;98154.34;;;10.99;100.00
11444;BME280;5778;47.856;12.154;2023-02-12T12:44:48;98156.34;;;11.04;100.00
11444;BME280;5778;47.856;12.154;2023-02-12T12:47:23;98150.50;;;10.82;100.00
11444;BME280;5778;47.856;12.154;2023-02-12T12:49:59;98151.88;;;10.98;100.00
11444;BME280;5778;47.856;12.154;2023-02-12T12:53:03;98144.44;;;11.19;100.00
11444;BME280;5778;47.856;12.154;2023-02-12T12:55:53;98149.59;;;11.08;100.00
11444;BME280;5778;47.856;12.154;2023-02-12T12:58:36;98147.47;;;11.23;100.00
11444;BME280;5778;47.856;12.154;2023-02-12T13:01:44;98149.59;;;11.52;100.00
11444;BME280;5778;47.856;12.154;2023-02-12T13:04:57;98144.84;;;11.54;100.00
11444;BME280;5778;47.856;12.154;2023-02-12T13:07:46;98153.97;;;11.77;100.00
11444;BME280;5778;47.856;12.154;2023-02-12T13:10:24;98150.84;;;12.36;100.00
11444;BME280;5778;47.856;12.154;2023-02-12T13:13:14;98150.56;;;12.68;99.93
11444;BME280;5778;47.856;12.154;2023-02-12T13:15:51;98148.88;;;13.87;87.49
11444;BME280;5778;47.856;12.154;2023-02-12T13:18:31;98143.00;;;13.67;83.71
11444;BME280;5778;47.856;12.154;2023-02-12T13:21:10;98148.22;;;14.03;85.81
11444;BME280;5778;47.856;12.154;2023-02-12T13:23:46;98139.19;;;13.45;88.79
11444;BME280;5778;47.856;12.154;2023-02-12T13:26:23;98145.84;;;13.24;99.94
11444;BME280;5778;47.856;12.154;2023-02-12T13:29:00;98144.97;;;14.01;92.73
11444;BME280;5778;47.856;12.154;2023-02-12T13:31:42;98145.88;;;14.24;85.28
11444;BME280;5778;47.856;12.154;2023-02-12T13:34:13;98142.22;;;15.11;72.48
11444;BME280;5778;47.856;12.154;2023-02-12T13:36:44;98142.69;;;15.19;68.22
11444;BME280;5778;47.856;12.154;2023-02-12T13:39:24;98139.13;;;14.91;66.15